Time;durP1;ratioP1;P1;durP2;ratioP2;P2;SDS_P1;SDS_P2;PMS_P1;PMS_P2;Temp;Humidity;BMP_temperature;BMP_pressure;BME280_temperature;BME280_humidity;BME280_pressure;Samples;Min_cycle;Max_cycle;Signal;HPM_P1;HPM_P2
2022/05/13 00:02:24;;;;;;;1.90;1.50;;;13.60;74.50;;;;;;4950058;28;20054;-72
2022/05/13 00:04:50;;;;;;;2.38;1.50;;;13.60;74.80;;;;;;4949853;28;20031;-72
2022/05/13 00:07:16;;;;;;;6.20;1.55;;;13.60;74.80;;;;;;4955283;28;20187;-71
2022/05/13 00:09:57;;;;;;;2.30;1.33;;;13.60;74.80;;;;;;4953426;28;20120;-72
2022/05/13 00:12:24;;;;;;;2.28;1.80;;;13.50;74.60;;;;;;4949462;28;20035;-72
2022/05/13 00:14:51;;;;;;;1.77;1.67;;;13.50;74.80;;;;;;4957566;28;20126;-72
2022/05/13 00:17:17;;;;;;;2.53;1.60;;;13.50;74.80;;;;;;4951308;28;20039;-72
2022/05/13 00:19:43;;;;;;;1.80;1.70;;;13.50;74.80;;;;;;4951815;28;20030;-72
2022/05/13 00:22:09;;;;;;;2.63;1.75;;;13.40;75.20;;;;;;4952788;28;20065;-72
2022/05/13 00:24:35;;;;;;;1.90;1.55;;;13.40;75.30;;;;;;4944318;28;20030;-72
2022/05/13 00:27:02;;;;;;;3.15;1.88;;;13.40;75.50;;;;;;4951516;28;20054;-72
2022/05/13 00:29:28;;;;;;;1.77;1.60;;;13.40;75.40;;;;;;4946759;28;20125;-72
2022/05/13 00:31:54;;;;;;;2.10;1.60;;;13.30;76.40;;;;;;4946965;28;20106;-72
2022/05/13 00:34:19;;;;;;;1.58;1.48;;;13.30;75.60;;;;;;4953717;28;20074;-71
2022/05/13 00:36:47;;;;;;;3.95;1.70;;;13.30;75.50;;;;;;4952887;28;20038;-72
2022/05/13 00:39:13;;;;;;;2.33;1.83;;;13.30;75.70;;;;;;4953646;28;20046;-72
2022/05/13 00:41:40;;;;;;;2.67;1.70;;;13.30;75.50;;;;;;4954323;28;20526;-72
2022/05/13 00:44:06;;;;;;;1.90;1.80;;;13.20;75.60;;;;;;4950474;28;20039;-72
2022/05/13 00:46:32;;;;;;;3.85;1.90;;;13.20;75.60;;;;;;4946686;28;20073;-72
2022/05/13 00:49:01;;;;;;;2.40;1.67;;;13.20;75.80;;;;;;4951016;28;20035;-72
2022/05/13 00:51:32;;;;;;;4.13;1.70;;;13.20;76.00;;;;;;4955210;28;20038;-72
2022/05/13 00:53:58;;;;;;;2.88;2.17;;;13.20;76.70;;;;;;4953452;28;20035;-72
2022/05/13 00:56:25;;;;;;;5.20;2.08;;;13.20;76.60;;;;;;4956375;28;20509;-72
2022/05/13 00:58:56;;;;;;;3.50;2.00;;;13.20;76.70;;;;;;4935342;28;20043;-72
2022/05/13 01:01:23;;;;;;;4.90;2.10;;;13.10;76.50;;;;;;4944445;28;20045;-72
2022/05/13 01:03:50;;;;;;;3.78;1.80;;;13.10;76.70;;;;;;4945604;28;20038;-72
2022/05/13 01:06:22;;;;;;;7.18;1.75;;;13.00;76.80;;;;;;4933771;28;20066;-72
2022/05/13 01:08:48;;;;;;;2.53;1.73;;;13.00;77.00;;;;;;4956542;28;20042;-72
2022/05/13 01:11:17;;;;;;;3.75;2.08;;;13.00;77.40;;;;;;4956689;28;20747;-72
2022/05/13 01:13:51;;;;;;;2.03;1.65;;;12.90;77.70;;;;;;4953924;28;20114;-71
2022/05/13 01:16:16;;;;;;;3.88;2.20;;;12.90;78.70;;;;;;4935822;28;20070;-72
2022/05/13 01:18:45;;;;;;;2.67;1.80;;;12.90;78.90;;;;;;4948660;28;20461;-72
2022/05/13 01:21:18;;;;;;;3.92;1.92;;;12.80;79.20;;;;;;4948616;28;20038;-72
2022/05/13 01:23:45;;;;;;;3.45;1.80;;;12.80;79.50;;;;;;4932172;28;20035;-72
2022/05/13 01:26:16;;;;;;;2.53;1.95;;;12.70;79.50;;;;;;4955086;28;20243;-71
2022/05/13 01:28:47;;;;;;;2.75;2.13;;;12.60;80.50;;;;;;4957823;28;20038;-72
2022/05/13 01:31:21;;;;;;;2.47;2.00;;;12.60;81.20;;;;;;4955225;28;20923;-72
2022/05/13 01:33:46;;;;;;;2.60;1.98;;;12.50;81.10;;;;;;4950335;28;20027;-72
2022/05/13 01:36:15;;;;;;;3.95;2.33;;;12.50;81.70;;;;;;4947042;28;20472;-73
2022/05/13 01:38:42;;;;;;;3.35;2.25;;;12.40;82.00;;;;;;4930547;28;20035;-72
2022/05/13 01:41:11;;;;;;;2.55;2.28;;;12.40;82.20;;;;;;4950933;28;20053;-72
2022/05/13 01:43:38;;;;;;;3.30;2.40;;;12.30;82.40;;;;;;4951644;28;20145;-71
2022/05/13 01:46:04;;;;;;;2.45;2.00;;;12.30;82.60;;;;;;4948152;28;20057;-72
2022/05/13 01:48:30;;;;;;;2.38;1.50;;;12.30;82.10;;;;;;4959186;28;20085;-72
2022/05/13 01:50:57;;;;;;;2.78;2.10;;;12.20;82.40;;;;;;4935930;28;20095;-72
2022/05/13 01:53:22;;;;;;;2.13;1.92;;;12.10;82.10;;;;;;4950257;28;20031;-72
2022/05/13 01:55:48;;;;;;;3.38;1.83;;;12.00;82.50;;;;;;4949156;28;20388;-71
2022/05/13 01:58:17;;;;;;;6.07;2.28;;;11.90;83.10;;;;;;4951674;28;20053;-71
2022/05/13 02:00:45;;;;;;;3.22;2.17;;;11.80;83.80;;;;;;4951505;28;20053;-72
2022/05/13 02:05:56;;;;;;;2.60;2.35;;;11.60;84.50;;;;;;4946475;28;20034;-72
2022/05/13 02:08:23;;;;;;;3.63;2.67;;;11.60;85.10;;;;;;4950861;28;20117;-72
2022/05/13 02:10:49;;;;;;;4.70;2.65;;;11.50;85.30;;;;;;4949964;28;20039;-71
2022/05/13 02:13:15;;;;;;;3.13;2.83;;;11.40;85.70;;;;;;4933502;28;20027;-71
2022/05/13 02:15:41;;;;;;;3.53;2.90;;;11.40;86.00;;;;;;4953589;28;20574;-72
2022/05/13 02:18:09;;;;;;;5.25;2.78;;;11.40;86.60;;;;;;4948704;28;20086;-71
2022/05/13 02:20:35;;;;;;;6.78;3.47;;;11.30;87.20;;;;;;4948813;28;20141;-71
2022/05/13 02:23:01;;;;;;;4.95;3.17;;;11.30;87.70;;;;;;4952476;28;20074;-72
2022/05/13 02:25:29;;;;;;;5.93;3.60;;;11.30;88.20;;;;;;4953484;28;20079;-72
2022/05/13 02:27:56;;;;;;;5.45;3.60;;;11.20;88.50;;;;;;4953107;28;20043;-72
2022/05/13 02:30:22;;;;;;;4.90;3.90;;;11.30;88.60;;;;;;4956019;28;20034;-72
2022/05/13 02:32:48;;;;;;;4.45;3.50;;;11.30;89.20;;;;;;4955405;28;20456;-72
2022/05/13 02:35:14;;;;;;;7.53;3.95;;;11.30;88.70;;;;;;4951452;28;20031;-72
2022/05/13 02:37:39;;;;;;;3.92;3.60;;;11.30;88.60;;;;;;4953929;28;20023;-71
2022/05/13 02:40:06;;;;;;;5.18;4.30;;;11.30;88.80;;;;;;4952998;28;20467;-71
2022/05/13 02:42:31;;;;;;;7.15;4.40;;;11.30;88.80;;;;;;4955826;28;20027;-70
2022/05/13 02:44:57;;;;;;;6.50;4.32;;;11.30;88.80;;;;;;4956685;28;20066;-71
2022/05/13 02:47:23;;;;;;;6.78;4.40;;;11.30;88.80;;;;;;4956254;28;20503;-72
2022/05/13 02:50:17;;;;;;;4.57;4.00;;;11.30;88.90;;;;;;4956300;28;20066;-71
2022/05/13 02:52:34;;;;;;;6.40;4.40;;;11.30;88.90;;;;;;4952467;28;20030;-72
2022/05/13 02:55:00;;;;;;;8.95;4.07;;;11.30;88.90;;;;;;4939611;28;20031;-71
2022/05/13 02:57:25;;;;;;;6.38;4.88;;;11.30;89.20;;;;;;4956995;28;20046;-71
2022/05/13 02:59:51;;;;;;;4.40;4.00;;;11.30;89.20;;;;;;4961272;28;20436;-71
2022/05/13 03:02:17;;;;;;;6.40;4.88;;;11.30;89.10;;;;;;4958446;28;20046;-71
2022/05/13 03:04:43;;;;;;;7.32;4.70;;;11.20;89.10;;;;;;4945429;28;20049;-71
2022/05/13 03:07:09;;;;;;;5.38;4.45;;;11.20;89.30;;;;;;4963109;28;20039;-72
2022/05/13 03:09:34;;;;;;;5.55;4.00;;;11.20;89.40;;;;;;4952625;28;20892;-71
2022/05/13 03:12:00;;;;;;;4.97;4.55;;;11.20;89.40;;;;;;4953680;28;20039;-72
2022/05/13 03:14:26;;;;;;;4.63;3.97;;;11.20;89.80;;;;;;4952134;28;20115;-71
2022/05/13 03:16:52;;;;;;;6.45;4.63;;;11.20;89.70;;;;;;4957095;28;20762;-71
2022/05/13 03:19:17;;;;;;;4.40;3.80;;;11.20;89.60;;;;;;4959700;28;20653;-71
2022/05/13 03:21:43;;;;;;;3.90;3.50;;;11.20;89.40;;;;;;4961853;28;20335;-72
2022/05/13 03:24:09;;;;;;;6.28;4.45;;;11.20;88.40;;;;;;4956367;28;20495;-72
2022/05/13 03:26:34;;;;;;;6.78;4.38;;;11.10;88.70;;;;;;4958427;28;20491;-72
2022/05/13 03:29:00;;;;;;;5.63;5.00;;;11.20;89.40;;;;;;4953358;28;20043;-71
2022/05/13 03:31:26;;;;;;;6.88;4.55;;;11.10;89.70;;;;;;4954358;28;20079;-71
2022/05/13 03:33:52;;;;;;;5.97;5.05;;;11.10;89.90;;;;;;4959298;28;20062;-71
2022/05/13 03:36:19;;;;;;;6.68;5.55;;;11.10;89.90;;;;;;4956000;28;20564;-72
2022/05/13 03:38:45;;;;;;;5.88;4.78;;;11.10;90.00;;;;;;4957095;28;20042;-72
2022/05/13 03:41:11;;;;;;;6.28;4.90;;;11.10;90.00;;;;;;4937892;28;20041;-71
2022/05/13 03:43:37;;;;;;;6.05;5.45;;;11.10;89.90;;;;;;4944019;28;20050;-71
2022/05/13 03:46:02;;;;;;;6.05;5.20;;;11.10;89.80;;;;;;4956184;28;20611;-71
2022/05/13 03:48:28;;;;;;;6.20;5.45;;;11.20;90.00;;;;;;4959440;28;20030;-71
2022/05/13 03:50:54;;;;;;;5.50;5.00;;;11.20;90.00;;;;;;4958868;28;20071;-71
2022/05/13 03:53:20;;;;;;;5.25;4.65;;;11.20;90.00;;;;;;4952606;28;20031;-71
2022/05/13 03:55:45;;;;;;;5.47;4.97;;;11.30;90.00;;;;;;4945932;28;20085;-72
2022/05/13 03:58:12;;;;;;;8.07;5.07;;;11.30;89.80;;;;;;4955101;28;20049;-71
2022/05/13 04:00:38;;;;;;;5.25;4.75;;;11.30;89.70;;;;;;4957426;28;20031;-71
2022/05/13 04:03:04;;;;;;;6.55;5.57;;;11.40;89.80;;;;;;4954334;28;20035;-71
2022/05/13 04:11:03;;;;;;;8.60;4.80;;;11.50;88.90;;;;;;4953679;28;20027;-72
2022/05/13 04:16:13;;;;;;;6.15;4.63;;;11.60;88.50;;;;;;4956885;28;20027;-72
2022/05/13 04:18:42;;;;;;;8.35;5.93;;;11.70;88.40;;;;;;4957462;28;20521;-71
2022/05/13 04:21:11;;;;;;;6.07;5.30;;;11.70;88.50;;;;;;4957612;28;20661;-72
2022/05/13 04:23:40;;;;;;;6.43;5.78;;;11.80;88.20;;;;;;4954900;28;20476;-71
2022/05/13 04:26:06;;;;;;;5.80;5.22;;;11.80;87.90;;;;;;4953532;28;20055;-72
2022/05/13 04:28:32;;;;;;;8.18;5.85;;;11.80;87.60;;;;;;4950420;28;20041;-71
2022/05/13 04:30:58;;;;;;;8.35;6.10;;;12.00;87.40;;;;;;4952189;28;20038;-71
2022/05/13 04:33:25;;;;;;;7.43;5.68;;;12.00;87.20;;;;;;4957825;28;20027;-73
2022/05/13 04:35:51;;;;;;;7.63;5.88;;;12.10;87.30;;;;;;4960570;28;20030;-70
2022/05/13 04:38:17;;;;;;;6.25;5.65;;;12.10;87.50;;;;;;4943849;28;20041;-71
2022/05/13 04:40:43;;;;;;;7.70;5.70;;;12.20;86.80;;;;;;4959408;28;20486;-71
2022/05/13 04:43:08;;;;;;;7.68;5.35;;;12.30;86.60;;;;;;4952800;28;20035;-71
2022/05/13 04:45:35;;;;;;;7.38;5.80;;;12.40;86.60;;;;;;4954041;28;20039;-71
2022/05/13 04:48:19;;;;;;;5.88;5.13;;;12.50;85.80;;;;;;4952023;28;20050;-71
2022/05/13 04:50:54;;;;;;;6.00;5.40;;;12.50;85.80;;;;;;4956118;28;20031;-71
2022/05/13 04:53:23;;;;;;;6.63;5.40;;;12.70;85.40;;;;;;4958033;28;20038;-71
2022/05/13 04:55:53;;;;;;;5.18;4.75;;;12.80;85.10;;;;;;4953402;28;20037;-71
2022/05/13 04:58:20;;;;;;;5.63;5.10;;;12.90;84.70;;;;;;4961343;28;20042;-71
2022/05/13 05:00:47;;;;;;;6.75;5.70;;;13.00;84.20;;;;;;4958519;28;20146;-73
2022/05/13 05:03:14;;;;;;;9.23;6.10;;;13.10;84.00;;;;;;4958746;28;20042;-71
2022/05/13 05:05:42;;;;;;;6.28;5.68;;;13.30;83.90;;;;;;4953956;28;20134;-71
2022/05/13 05:08:08;;;;;;;6.32;4.50;;;13.40;83.80;;;;;;4958754;28;20054;-73
2022/05/13 05:10:33;;;;;;;8.20;5.50;;;13.50;83.20;;;;;;4954164;28;20085;-71
2022/05/13 05:13:00;;;;;;;6.88;5.10;;;13.70;82.70;;;;;;4948003;28;20038;-73
2022/05/13 05:15:26;;;;;;;6.72;4.90;;;14.10;82.30;;;;;;4956992;28;20125;-71
2022/05/13 05:17:52;;;;;;;5.35;4.47;;;15.00;78.30;;;;;;4957114;28;20903;-71
2022/05/13 05:20:20;;;;;;;5.47;4.30;;;15.70;74.90;;;;;;4951809;28;20042;-71
2022/05/13 05:22:46;;;;;;;6.13;4.03;;;16.20;73.00;;;;;;4950719;28;20027;-71
2022/05/13 05:25:17;;;;;;;5.25;4.25;;;16.40;71.70;;;;;;4955233;28;20035;-71
2022/05/13 05:27:42;;;;;;;4.57;4.18;;;16.70;71.60;;;;;;4953474;28;20083;-71
2022/05/13 05:30:11;;;;;;;4.80;4.03;;;17.00;70.60;;;;;;4944877;28;20114;-71
2022/05/13 05:32:38;;;;;;;5.40;3.97;;;17.70;69.30;;;;;;4950007;28;20027;-71
2022/05/13 05:35:16;;;;;;;6.25;3.85;;;17.90;67.90;;;;;;4951625;28;20027;-71
2022/05/13 05:37:41;;;;;;;5.00;4.15;;;17.80;68.30;;;;;;4956202;28;20479;-71
2022/05/13 05:40:09;;;;;;;4.13;3.70;;;17.80;69.00;;;;;;4938941;28;20153;-71
2022/05/13 05:42:36;;;;;;;4.68;3.70;;;18.20;66.60;;;;;;4942032;28;20042;-71
2022/05/13 05:45:03;;;;;;;6.57;4.07;;;18.60;64.40;;;;;;4940686;28;20039;-71
2022/05/13 05:47:28;;;;;;;5.47;3.35;;;18.50;64.60;;;;;;4941362;28;20027;-71
2022/05/13 05:49:54;;;;;;;6.57;3.70;;;18.40;63.40;;;;;;4957365;28;20035;-72
2022/05/13 05:52:20;;;;;;;4.72;3.42;;;18.90;63.00;;;;;;4938893;28;20034;-71
2022/05/13 05:57:30;;;;;;;7.65;3.50;;;19.00;61.80;;;;;;4957914;28;20521;-71
2022/05/13 05:59:56;;;;;;;5.78;3.17;;;19.30;62.50;;;;;;4949382;28;20042;-71
2022/05/13 06:02:22;;;;;;;4.00;3.00;;;19.50;61.50;;;;;;4946297;28;20039;-72
2022/05/13 06:04:48;;;;;;;12.48;4.00;;;19.90;61.30;;;;;;4946787;28;20027;-71
2022/05/13 06:07:16;;;;;;;4.85;3.08;;;20.10;58.30;;;;;;4955803;28;20875;-71
2022/05/13 06:09:43;;;;;;;4.10;3.05;;;19.90;60.40;;;;;;4954831;28;20080;-71
2022/05/13 06:12:11;;;;;;;4.95;3.13;;;19.80;61.40;;;;;;4955129;28;20058;-71
2022/05/13 06:14:37;;;;;;;5.18;2.90;;;19.80;62.80;;;;;;4958245;28;20033;-71
2022/05/13 06:17:03;;;;;;;7.25;3.50;;;20.00;63.60;;;;;;4952346;28;20030;-71
2022/05/13 06:19:29;;;;;;;5.45;3.53;;;20.10;60.80;;;;;;4932504;28;20519;-71
2022/05/13 06:21:55;;;;;;;10.02;3.60;;;20.10;60.90;;;;;;4934165;28;20138;-71
2022/05/13 06:24:21;;;;;;;6.85;3.80;;;19.90;58.20;;;;;;4952053;28;20046;-71
2022/05/13 06:26:49;;;;;;;7.22;3.97;;;19.70;57.50;;;;;;4953210;28;20070;-71
2022/05/13 06:29:20;;;;;;;7.05;3.95;;;19.60;58.10;;;;;;4954811;28;20060;-71
2022/05/13 06:31:46;;;;;;;6.68;4.03;;;19.80;57.40;;;;;;4957853;28;20133;-71
2022/05/13 06:34:12;;;;;;;4.75;3.22;;;20.00;56.50;;;;;;4953292;28;20023;-71
2022/05/13 06:36:38;;;;;;;7.75;4.20;;;20.30;56.40;;;;;;4959608;28;20027;-71
2022/05/13 06:39:05;;;;;;;8.93;4.60;;;20.60;56.00;;;;;;4955342;28;20416;-71
2022/05/13 06:41:31;;;;;;;8.00;4.25;;;20.60;54.80;;;;;;4956992;28;20114;-71
2022/05/13 06:43:57;;;;;;;6.07;4.50;;;20.40;55.70;;;;;;4955689;28;20772;-72
2022/05/13 06:46:23;;;;;;;7.95;4.22;;;20.40;55.40;;;;;;4959047;28;20034;-71
2022/05/13 06:48:49;;;;;;;6.40;3.88;;;20.50;55.90;;;;;;4958568;28;20045;-71
2022/05/13 06:51:16;;;;;;;6.90;4.88;;;20.60;54.70;;;;;;4961299;28;20364;-72
2022/05/13 06:53:42;;;;;;;4.78;4.00;;;21.00;55.50;;;;;;4953926;28;20471;-71
2022/05/13 06:56:08;;;;;;;8.02;4.00;;;21.50;54.60;;;;;;4961778;28;20058;-71
2022/05/13 06:58:34;;;;;;;9.68;4.32;;;21.50;54.70;;;;;;4960049;28;20179;-71
2022/05/13 07:01:02;;;;;;;7.00;5.00;;;21.60;54.10;;;;;;4959933;28;20049;-71
2022/05/13 07:03:28;;;;;;;5.05;3.60;;;21.60;54.10;;;;;;4953416;28;20043;-72
2022/05/13 07:05:53;;;;;;;6.70;4.53;;;21.60;53.40;;;;;;4945940;28;20094;-72
2022/05/13 07:08:19;;;;;;;7.50;4.57;;;22.00;53.30;;;;;;4957758;28;20110;-71
2022/05/13 07:10:45;;;;;;;7.60;3.88;;;23.30;48.50;;;;;;4956411;28;20034;-71
2022/05/13 07:13:14;;;;;;;7.40;3.95;;;23.60;48.20;;;;;;4958932;28;20123;-71
2022/05/13 07:15:40;;;;;;;10.85;4.05;;;23.70;47.90;;;;;;4956694;28;20087;-72
2022/05/13 07:18:07;;;;;;;4.63;4.03;;;23.50;47.50;;;;;;4954760;28;20074;-74
2022/05/13 07:20:33;;;;;;;5.45;4.10;;;23.20;47.40;;;;;;4952610;28;20027;-72
2022/05/13 07:22:59;;;;;;;7.50;4.30;;;22.90;47.70;;;;;;4949508;28;20046;-71
2022/05/13 07:25:24;;;;;;;6.15;4.10;;;22.90;47.10;;;;;;4959909;28;20365;-72
2022/05/13 07:27:50;;;;;;;6.68;4.07;;;22.80;48.20;;;;;;4960821;28;20035;-71
2022/05/13 07:30:16;;;;;;;6.60;4.68;;;22.50;48.90;;;;;;4960703;28;20038;-71
2022/05/13 07:32:42;;;;;;;6.35;4.15;;;22.30;48.70;;;;;;4957580;28;20084;-72
2022/05/13 07:35:08;;;;;;;8.32;4.78;;;22.20;48.90;;;;;;4943149;28;20784;-72
2022/05/13 07:37:36;;;;;;;6.80;4.28;;;22.00;49.10;;;;;;4958576;28;20038;-72
2022/05/13 07:42:48;;;;;;;;;;;21.50;50.30;;;;;;4953459;28;20510;-72
2022/05/13 07:45:13;;;;;;;9.65;5.05;;;21.10;51.00;;;;;;4956417;28;19914;-71
2022/05/13 07:47:42;;;;;;;5.97;4.63;;;20.80;52.40;;;;;;4958900;28;20731;-72
2022/05/13 07:50:10;;;;;;;7.20;4.72;;;20.40;54.00;;;;;;4953975;28;20071;-72
2022/05/13 07:52:37;;;;;;;6.95;4.97;;;20.10;54.00;;;;;;4953871;28;20054;-71
2022/05/13 07:55:04;;;;;;;9.57;5.60;;;19.80;54.50;;;;;;4960337;28;20030;-72
2022/05/13 07:57:29;;;;;;;9.63;5.25;;;19.60;55.50;;;;;;4958181;28;20518;-72
2022/05/13 08:02:40;;;;;;;7.20;5.57;;;19.30;56.10;;;;;;4956172;28;20089;-72
2022/05/13 08:05:06;;;;;;;6.68;4.88;;;19.00;56.90;;;;;;4955975;28;20035;-72
2022/05/13 08:07:31;;;;;;;7.85;5.28;;;18.90;58.70;;;;;;4961252;28;20041;-72
2022/05/13 08:09:57;;;;;;;10.02;5.93;;;18.80;59.10;;;;;;4956965;28;20031;-72
2022/05/13 08:12:23;;;;;;;9.40;4.97;;;19.00;58.40;;;;;;4956453;28;20514;-72
2022/05/13 08:14:48;;;;;;;8.48;6.30;;;19.20;58.00;;;;;;4935772;28;20034;-74
2022/05/13 08:17:14;;;;;;;8.85;5.78;;;19.40;58.00;;;;;;4954055;28;20042;-71
2022/05/13 08:19:40;;;;;;;7.43;4.50;;;19.40;56.90;;;;;;4957505;28;20027;-72
2022/05/13 08:22:06;;;;;;;7.10;5.85;;;19.40;57.60;;;;;;4950945;28;20500;-71
2022/05/13 08:24:32;;;;;;;7.78;5.93;;;19.40;58.00;;;;;;4951929;28;20034;-71
2022/05/13 08:26:57;;;;;;;8.07;4.82;;;19.40;57.60;;;;;;4957387;28;20034;-72
2022/05/13 08:29:23;;;;;;;7.38;5.55;;;19.40;57.40;;;;;;4953826;28;20043;-73
2022/05/13 08:31:50;;;;;;;7.88;5.10;;;19.40;57.50;;;;;;4953915;28;20039;-73
2022/05/13 08:34:16;;;;;;;11.18;5.63;;;19.30;57.10;;;;;;4936722;28;20033;-72
2022/05/13 08:36:43;;;;;;;9.27;5.10;;;19.20;57.00;;;;;;4951565;28;20027;-73
2022/05/13 08:39:10;;;;;;;8.75;5.15;;;19.20;56.50;;;;;;4951305;28;20580;-72
2022/05/13 08:42:06;;;;;;;8.38;4.63;;;19.10;57.20;;;;;;4953820;28;20038;-73
2022/05/13 08:44:32;;;;;;;9.25;4.88;;;18.90;57.70;;;;;;4954150;28;20037;-73
2022/05/13 08:47:14;;;;;;;11.52;4.70;;;18.80;57.40;;;;;;4958222;28;20077;-72
2022/05/13 08:49:46;;;;;;;11.95;4.88;;;18.90;56.80;;;;;;4952944;28;20034;-72
2022/05/13 08:53:12;;;;;;;5.43;4.00;;;19.20;56.10;;;;;;4953640;28;20047;-71
2022/05/13 08:55:24;;;;;;;6.88;4.20;;;19.70;55.60;;;;;;4945829;28;20035;-71
2022/05/13 08:57:49;;;;;;;7.68;4.22;;;20.10;54.90;;;;;;4954913;28;20074;-72
2022/05/13 09:00:24;;;;;;;8.90;4.25;;;20.40;54.60;;;;;;4956404;28;20142;-71
2022/05/13 09:02:58;;;;;;;8.20;4.63;;;20.80;52.90;;;;;;4955585;28;20034;-71
2022/05/13 09:05:39;;;;;;;5.93;4.57;;;21.10;52.00;;;;;;4956866;28;20041;-71
2022/05/13 09:08:06;;;;;;;8.50;4.10;;;21.60;50.30;;;;;;4952227;28;20031;-71
2022/05/13 09:10:50;;;;;;;7.95;4.10;;;21.70;49.30;;;;;;4951215;28;20019;-72
2022/05/13 09:13:34;;;;;;;7.30;3.83;;;22.20;48.70;;;;;;4946726;28;20078;-71
2022/05/13 09:16:05;;;;;;;5.30;3.08;;;22.50;47.00;;;;;;4953670;28;20853;-71
2022/05/13 09:18:37;;;;;;;3.67;2.95;;;22.60;48.40;;;;;;4954865;28;20043;-73
2022/05/13 09:21:19;;;;;;;7.78;2.90;;;23.20;47.00;;;;;;4957928;28;20043;-71
2022/05/13 09:23:45;;;;;;;3.67;2.08;;;23.90;45.10;;;;;;4952963;28;20078;-70
2022/05/13 09:26:28;;;;;;;4.88;2.15;;;24.00;43.90;;;;;;4953809;28;20250;-70
2022/05/13 09:29:17;;;;;;;4.53;2.22;;;23.90;45.30;;;;;;4938052;28;20053;-70
2022/05/13 09:32:01;;;;;;;4.45;2.25;;;23.60;44.30;;;;;;4953108;28;20110;-71
2022/05/13 09:34:41;;;;;;;5.93;2.30;;;23.70;44.50;;;;;;4954898;28;20046;-70
2022/05/13 09:37:21;;;;;;;6.32;2.38;;;23.80;44.40;;;;;;4955258;28;20034;-71
2022/05/13 09:39:50;;;;;;;5.57;2.90;;;24.10;44.30;;;;;;4957551;28;20031;-71
2022/05/13 09:42:23;;;;;;;6.40;2.15;;;24.70;42.60;;;;;;4958037;28;20045;-70
2022/05/13 09:44:51;;;;;;;4.57;2.60;;;24.80;42.70;;;;;;4956770;28;20432;-70
2022/05/13 09:47:28;;;;;;;9.30;2.97;;;24.80;42.90;;;;;;4950420;28;20065;-71
2022/05/13 09:49:54;;;;;;;5.35;2.40;;;24.60;42.10;;;;;;4954061;28;20062;-70
2022/05/13 09:52:29;;;;;;;5.88;2.83;;;24.40;42.80;;;;;;4954696;28;20119;-71
2022/05/13 09:55:03;;;;;;;5.10;1.90;;;24.10;42.10;;;;;;4946706;28;20035;-70
2022/05/13 09:57:33;;;;;;;4.40;1.92;;;23.80;43.60;;;;;;4959268;28;20059;-70
2022/05/13 10:00:01;;;;;;;4.80;2.10;;;23.80;44.90;;;;;;4955133;28;20428;-70
2022/05/13 10:02:45;;;;;;;4.45;2.28;;;23.90;43.40;;;;;;4951138;28;20088;-71
2022/05/13 10:05:25;;;;;;;5.60;2.22;;;23.40;44.10;;;;;;4958367;28;20038;-71
2022/05/13 10:07:51;;;;;;;7.10;2.22;;;23.10;44.60;;;;;;4960220;28;20077;-70
2022/05/13 10:16:16;;;;;;;4.10;1.60;;;22.90;44.40;;;;;;4955365;28;20043;-71
2022/05/13 10:19:06;;;;;;;4.85;1.73;;;22.90;43.60;;;;;;4957021;28;20035;-71
2022/05/13 10:21:47;;;;;;;5.05;1.63;;;23.00;43.40;;;;;;4956374;28;20053;-71
2022/05/13 10:24:26;;;;;;;4.53;1.42;;;23.10;44.30;;;;;;4955128;28;20419;-71
2022/05/13 10:26:54;;;;;;;7.60;1.73;;;23.40;44.20;;;;;;4955069;28;20035;-72
2022/05/13 10:29:41;;;;;;;4.47;1.20;;;23.80;43.20;;;;;;4955969;28;20039;-71
2022/05/13 10:32:18;;;;;;;4.20;1.52;;;24.00;41.70;;;;;;4956144;28;20125;-71
2022/05/13 10:34:50;;;;;;;5.22;1.00;;;24.50;41.20;;;;;;4955435;28;20041;-71
2022/05/13 10:37:37;;;;;;;3.47;1.30;;;24.30;40.70;;;;;;4959169;28;20174;-71
2022/05/13 10:40:16;;;;;;;6.20;1.30;;;24.30;41.00;;;;;;4955839;28;20077;-71
2022/05/13 10:42:48;;;;;;;6.72;1.45;;;24.00;39.90;;;;;;4958171;28;20121;-71
2022/05/13 10:45:24;;;;;;;5.88;1.35;;;23.60;41.00;;;;;;4959077;28;20115;-72
2022/05/13 10:48:12;;;;;;;3.33;1.02;;;23.30;41.40;;;;;;4948612;28;20043;-72
2022/05/13 10:50:55;;;;;;;5.00;1.50;;;23.30;40.50;;;;;;4958126;28;20026;-71
2022/05/13 10:53:27;;;;;;;3.35;1.10;;;23.60;41.10;;;;;;4956783;28;20177;-73
2022/05/13 10:56:34;;;;;;;3.05;1.00;;;23.90;39.70;;;;;;4958751;28;20030;-72
2022/05/13 10:59:24;;;;;;;6.65;1.30;;;23.80;40.60;;;;;;4952187;28;20043;-70
2022/05/13 11:02:24;;;;;;;2.53;1.30;;;24.00;40.00;;;;;;4948823;28;20542;-71
2022/05/13 11:04:58;;;;;;;6.20;1.40;;;24.30;39.60;;;;;;4951471;28;20031;-71
2022/05/13 11:07:48;;;;;;;2.33;1.27;;;24.00;38.00;;;;;;4957224;28;20717;-71
2022/05/13 11:10:32;;;;;;;5.03;1.58;;;23.70;38.90;;;;;;4952749;28;20039;-67
2022/05/13 11:13:33;;;;;;;6.22;1.60;;;23.10;39.10;;;;;;4960580;28;20042;-70
2022/05/13 11:16:06;;;;;;;5.28;1.92;;;22.80;39.70;;;;;;4951870;28;20047;-70
2022/05/13 11:19:01;;;;;;;17.17;2.22;;;22.80;40.90;;;;;;4957249;28;20034;-72
2022/05/13 11:21:50;;;;;;;3.25;1.65;;;22.90;39.50;;;;;;4956175;28;20035;-71
2022/05/13 11:27:43;;;;;;;5.43;1.70;;;22.70;40.70;;;;;;4958570;28;20046;-68
2022/05/13 11:30:17;;;;;;;6.95;2.30;;;22.60;40.80;;;;;;4959180;28;20031;-75
2022/05/13 11:32:52;;;;;;;3.47;1.88;;;22.40;41.10;;;;;;4956403;28;20486;-72
2022/05/13 11:35:49;;;;;;;5.10;2.13;;;22.20;41.90;;;;;;4959027;28;20042;-72
2022/05/13 11:38:21;;;;;;;8.23;2.08;;;22.10;42.00;;;;;;4955341;28;20085;-67
2022/05/13 11:41:03;;;;;;;4.10;2.00;;;22.50;41.70;;;;;;4956364;28;20221;-67
2022/05/13 11:44:00;;;;;;;8.75;2.08;;;22.80;41.50;;;;;;4954384;28;20047;-69
2022/05/13 11:47:10;;;;;;;4.30;1.75;;;23.20;41.20;;;;;;4938189;28;20039;-72
2022/05/13 11:49:40;;;;;;;8.23;2.20;;;23.20;41.40;;;;;;4944810;28;20554;-72
2022/05/13 11:52:35;;;;;;;8.38;2.47;;;22.80;40.40;;;;;;4957630;28;20150;-70
2022/05/13 11:55:17;;;;;;;8.02;2.65;;;22.30;41.70;;;;;;4951942;28;20410;-71
2022/05/13 11:57:51;;;;;;;2.80;1.83;;;22.20;42.80;;;;;;4959553;28;20066;-71
2022/05/13 12:00:38;;;;;;;4.00;2.03;;;22.30;42.80;;;;;;4960263;28;20125;-68
2022/05/13 12:03:09;;;;;;;5.00;2.10;;;22.60;42.70;;;;;;4952496;28;20085;-70
2022/05/13 12:05:48;;;;;;;6.43;2.03;;;22.80;41.80;;;;;;4953392;28;20049;-70
2022/05/13 12:08:31;;;;;;;4.28;1.65;;;22.90;42.10;;;;;;4935489;28;20085;-70
2022/05/13 12:11:02;;;;;;;8.60;2.47;;;23.00;41.70;;;;;;4958874;28;20031;-70
2022/05/13 12:13:59;;;;;;;5.97;1.80;;;23.40;40.40;;;;;;4952594;28;20447;-69
2022/05/13 12:16:48;;;;;;;6.38;1.70;;;23.50;40.60;;;;;;4953005;28;20130;-70
2022/05/13 12:19:26;;;;;;;9.52;1.88;;;23.60;40.10;;;;;;4952211;28;20154;-69
2022/05/13 12:22:07;;;;;;;4.18;1.50;;;23.40;39.80;;;;;;4950867;28;20057;-68
2022/05/13 12:25:15;;;;;;;3.92;1.38;;;23.20;40.50;;;;;;4951972;28;20543;-73
2022/05/13 12:28:03;;;;;;;4.13;1.60;;;23.00;41.30;;;;;;4928694;28;20503;-73
2022/05/13 12:30:36;;;;;;;4.97;1.63;;;22.70;41.70;;;;;;4956543;28;20043;-70
2022/05/13 12:33:20;;;;;;;9.70;2.00;;;22.70;40.80;;;;;;4957039;28;20028;-72
2022/05/13 12:39:11;;;;;;;6.43;1.30;;;22.20;40.60;;;;;;4951680;28;20038;-71
2022/05/13 12:41:43;;;;;;;4.40;1.45;;;22.10;41.40;;;;;;4938601;28;20030;-69
2022/05/13 12:44:52;;;;;;;4.05;1.40;;;22.00;42.10;;;;;;4953526;28;20096;-71
2022/05/13 12:48:42;;;;;;;8.90;1.73;;;21.90;42.40;;;;;;4883547;29;20622;-71
2022/05/13 12:51:10;;;;;;;7.72;1.40;;;22.00;42.60;;;;;;4924429;28;20079;-71
2022/05/13 12:53:57;;;;;;;5.65;1.38;;;22.00;42.10;;;;;;4950077;28;20158;-70
2022/05/13 12:56:25;;;;;;;4.88;1.42;;;22.10;42.20;;;;;;4949042;28;20041;-70
2022/05/13 12:59:01;;;;;;;8.75;1.75;;;22.10;41.70;;;;;;4950123;28;20479;-70
2022/05/13 13:01:29;;;;;;;5.32;1.63;;;21.80;42.50;;;;;;4954000;28;20054;-70
2022/05/13 13:03:55;;;;;;;4.90;1.50;;;21.60;43.00;;;;;;4949741;28;20045;-68
2022/05/13 13:06:21;;;;;;;5.35;1.40;;;21.40;43.80;;;;;;4951205;28;20073;-70
2022/05/13 13:08:54;;;;;;;6.30;1.63;;;21.20;44.70;;;;;;4954544;28;20031;-67
2022/05/13 13:11:46;;;;;;;8.60;2.00;;;21.10;45.30;;;;;;4950906;28;20131;-68
2022/05/13 13:14:22;;;;;;;5.57;1.50;;;20.90;45.30;;;;;;4948427;28;20038;-72
2022/05/13 13:16:51;;;;;;;;;;;20.60;45.90;;;;;;4929341;28;20073;-68
2022/05/13 13:19:23;;;;;;;5.57;1.58;;;20.40;47.00;;;;;;4952361;28;19937;-70
2022/05/13 13:22:02;;;;;;;5.75;1.70;;;20.10;47.60;;;;;;4926702;28;20126;-72
2022/05/13 13:24:31;;;;;;;4.70;1.90;;;20.10;48.10;;;;;;4933623;28;20061;-72
2022/05/13 13:26:58;;;;;;;6.28;1.95;;;20.20;48.30;;;;;;4950576;28;20023;-71
2022/05/13 13:29:30;;;;;;;5.32;1.50;;;20.20;48.20;;;;;;4954069;28;20601;-72
2022/05/13 13:31:59;;;;;;;6.97;1.45;;;20.20;48.40;;;;;;4952159;28;20518;-71
2022/05/13 13:34:55;;;;;;;4.05;1.85;;;20.50;48.70;;;;;;4953319;28;20031;-73
2022/05/13 13:37:24;;;;;;;6.43;1.77;;;20.80;48.00;;;;;;4931703;28;20082;-70
2022/05/13 13:39:50;;;;;;;9.00;1.90;;;21.40;46.30;;;;;;4955667;28;20047;-69
2022/05/13 13:42:18;;;;;;;3.80;1.23;;;21.80;44.80;;;;;;4955239;28;20120;-69